Conehatta, Mississippi
Current Conditions -  °F | °C
As of 10:58 AM on Sunday 21 Dec 2014 (Local Time) from KMEI Reporting Station
Overcast Overcast  
Wind Chill: 48°   Ceiling: 700
Heat Index: 48°   Visibility: 9mi
Dew Point: 44°   Wind: 3mph
Humidity: 86%   Direction: 20°NNE
Pressure: 30.14"   Gusts: NA
Location:  32.45°N, 89.29°W
Report Text: KMEI 211658Z 02003KT 9SM OVC007 09/07 A3014 RMK AO2 SLP205 T00890067
Loading
Personal Weather Stations






























Interactive Weather Map New forecast layout! Learn more

10-Day Weather Forecast

Advertisements
Track Severe Weather on mobile